sensor_id;sensor_type;location;lat;lon;timestamp;pressure;altitude;pressure_sealevel;temperature;humidity
62164;BME280;48149;51.132;7.178;2023-01-30T00:00:07;98960.94;;;20.07;33.97
62164;BME280;48149;51.132;7.178;2023-01-30T00:02:32;98955.16;;;18.66;34.58
62164;BME280;48149;51.132;7.178;2023-01-30T00:04:57;98958.31;;;18.53;35.49
62164;BME280;48149;51.132;7.178;2023-01-30T00:07:23;98940.44;;;22.10;32.49
62164;BME280;48149;51.132;7.178;2023-01-30T00:09:48;98937.19;;;20.66;32.97
62164;BME280;48149;51.132;7.178;2023-01-30T00:12:13;98919.88;;;19.28;36.94
62164;BME280;48149;51.132;7.178;2023-01-30T00:14:38;98916.44;;;19.32;36.09
62164;BME280;48149;51.132;7.178;2023-01-30T00:17:03;98914.56;;;19.28;36.63
62164;BME280;48149;51.132;7.178;2023-01-30T00:19:29;98908.34;;;18.92;37.78
62164;BME280;48149;51.132;7.178;2023-01-30T00:21:54;98927.03;;;20.89;35.35
62164;BME280;48149;51.132;7.178;2023-01-30T00:24:19;98923.72;;;20.02;35.32
62164;BME280;48149;51.132;7.178;2023-01-30T00:26:44;98926.94;;;21.04;34.83
62164;BME280;48149;51.132;7.178;2023-01-30T00:29:09;98921.63;;;21.04;34.80
62164;BME280;48149;51.132;7.178;2023-01-30T00:31:35;98906.88;;;21.32;35.39
62164;BME280;48149;51.132;7.178;2023-01-30T00:34:00;98909.88;;;21.20;34.33
62164;BME280;48149;51.132;7.178;2023-01-30T00:36:25;98888.53;;;20.66;35.04
62164;BME280;48149;51.132;7.178;2023-01-30T00:38:50;98903.25;;;19.88;35.96
62164;BME280;48149;51.132;7.178;2023-01-30T00:41:15;98907.09;;;19.09;36.11
62164;BME280;48149;51.132;7.178;2023-01-30T00:43:42;98888.03;;;19.33;37.23
62164;BME280;48149;51.132;7.178;2023-01-30T00:46:30;98887.56;;;20.01;36.61
62164;BME280;48149;51.132;7.178;2023-01-30T00:49:14;98886.44;;;19.37;37.20
62164;BME280;48149;51.132;7.178;2023-01-30T00:51:40;98880.44;;;18.79;38.17
62164;BME280;48149;51.132;7.178;2023-01-30T00:54:05;98882.78;;;20.03;39.52
62164;BME280;48149;51.132;7.178;2023-01-30T00:56:30;98876.41;;;20.94;35.50
62164;BME280;48149;51.132;7.178;2023-01-30T00:58:55;98873.75;;;20.09;37.95
62164;BME280;48149;51.132;7.178;2023-01-30T01:01:20;98866.97;;;20.62;36.20
62164;BME280;48149;51.132;7.178;2023-01-30T01:03:46;98849.31;;;19.97;36.42
62164;BME280;48149;51.132;7.178;2023-01-30T01:06:11;98846.69;;;19.47;38.13
62164;BME280;48149;51.132;7.178;2023-01-30T01:08:36;98848.25;;;20.03;37.04
62164;BME280;48149;51.132;7.178;2023-01-30T01:11:01;98848.88;;;20.64;37.92
62164;BME280;48149;51.132;7.178;2023-01-30T01:13:27;98856.22;;;19.68;37.66
62164;BME280;48149;51.132;7.178;2023-01-30T01:15:52;98864.13;;;19.23;39.09
62164;BME280;48149;51.132;7.178;2023-01-30T01:18:17;98862.09;;;19.60;36.91
62164;BME280;48149;51.132;7.178;2023-01-30T01:20:42;98868.81;;;18.33;38.60
62164;BME280;48149;51.132;7.178;2023-01-30T01:23:08;98851.66;;;20.19;38.37
62164;BME280;48149;51.132;7.178;2023-01-30T01:25:34;98848.22;;;19.98;37.93
62164;BME280;48149;51.132;7.178;2023-01-30T01:27:59;98855.44;;;19.57;39.03
62164;BME280;48149;51.132;7.178;2023-01-30T01:30:24;98844.00;;;19.97;36.76
62164;BME280;48149;51.132;7.178;2023-01-30T01:32:49;98832.84;;;19.45;38.48
62164;BME280;48149;51.132;7.178;2023-01-30T01:35:15;98833.88;;;22.48;34.80
62164;BME280;48149;51.132;7.178;2023-01-30T01:37:40;98825.44;;;21.88;36.32
62164;BME280;48149;51.132;7.178;2023-01-30T01:40:05;98813.63;;;20.23;38.61
62164;BME280;48149;51.132;7.178;2023-01-30T01:42:49;98824.88;;;19.85;37.57
62164;BME280;48149;51.132;7.178;2023-01-30T01:45:19;98813.50;;;21.52;38.19
62164;BME280;48149;51.132;7.178;2023-01-30T01:47:47;98818.41;;;20.96;35.36
62164;BME280;48149;51.132;7.178;2023-01-30T01:50:15;98829.97;;;23.44;33.79
62164;BME280;48149;51.132;7.178;2023-01-30T01:52:42;98825.56;;;20.36;35.72
62164;BME280;48149;51.132;7.178;2023-01-30T01:55:07;98816.53;;;22.74;35.00
62164;BME280;48149;51.132;7.178;2023-01-30T01:57:35;98825.59;;;20.95;37.22
62164;BME280;48149;51.132;7.178;2023-01-30T02:02:31;98813.53;;;21.47;38.05
62164;BME280;48149;51.132;7.178;2023-01-30T02:04:57;98820.47;;;20.50;39.09
62164;BME280;48149;51.132;7.178;2023-01-30T02:07:35;98809.25;;;21.17;37.36
62164;BME280;48149;51.132;7.178;2023-01-30T02:10:02;98811.13;;;20.62;36.93
62164;BME280;48149;51.132;7.178;2023-01-30T02:12:28;98797.00;;;18.40;41.23
62164;BME280;48149;51.132;7.178;2023-01-30T02:14:53;98793.97;;;21.61;37.79
62164;BME280;48149;51.132;7.178;2023-01-30T02:17:21;98797.69;;;20.18;37.67
62164;BME280;48149;51.132;7.178;2023-01-30T02:35:04;98757.41;;;19.76;40.27
62164;BME280;48149;51.132;7.178;2023-01-30T02:40:08;98764.78;;;19.99;40.38
62164;BME280;48149;51.132;7.178;2023-01-30T02:42:43;98763.25;;;19.73;42.19
62164;BME280;48149;51.132;7.178;2023-01-30T02:47:48;98737.91;;;20.26;39.58
62164;BME280;48149;51.132;7.178;2023-01-30T02:50:16;98739.53;;;20.66;40.12
62164;BME280;48149;51.132;7.178;2023-01-30T02:52:44;98761.06;;;18.69;42.01
62164;BME280;48149;51.132;7.178;2023-01-30T02:55:16;98743.63;;;19.64;42.75
62164;BME280;48149;51.132;7.178;2023-01-30T02:57:42;98726.88;;;18.83;42.56
62164;BME280;48149;51.132;7.178;2023-01-30T03:00:08;98725.59;;;19.00;41.52
62164;BME280;48149;51.132;7.178;2023-01-30T03:12:48;98717.28;;;19.88;41.43
62164;BME280;48149;51.132;7.178;2023-01-30T03:15:20;98716.16;;;20.63;39.32
62164;BME280;48149;51.132;7.178;2023-01-30T03:17:47;98704.94;;;20.17;39.65
62164;BME280;48149;51.132;7.178;2023-01-30T03:20:13;98708.06;;;19.45;42.07
62164;BME280;48149;51.132;7.178;2023-01-30T03:22:39;98691.88;;;19.26;41.56
62164;BME280;48149;51.132;7.178;2023-01-30T03:25:04;98696.81;;;19.88;40.02
62164;BME280;48149;51.132;7.178;2023-01-30T03:27:29;98703.28;;;19.37;42.16
62164;BME280;48149;51.132;7.178;2023-01-30T03:29:55;98706.78;;;20.21;39.62
62164;BME280;48149;51.132;7.178;2023-01-30T03:32:20;98706.66;;;21.24;37.79
62164;BME280;48149;51.132;7.178;2023-01-30T03:34:45;98687.41;;;21.61;38.65
62164;BME280;48149;51.132;7.178;2023-01-30T03:37:10;98676.22;;;19.19;41.78
62164;BME280;48149;51.132;7.178;2023-01-30T03:39:36;98680.69;;;19.39;41.63
62164;BME280;48149;51.132;7.178;2023-01-30T03:42:01;98677.81;;;19.41;42.15
62164;BME280;48149;51.132;7.178;2023-01-30T03:44:26;98677.56;;;20.16;40.49
62164;BME280;48149;51.132;7.178;2023-01-30T03:46:52;98674.09;;;19.42;42.28
62164;BME280;48149;51.132;7.178;2023-01-30T03:49:17;98685.28;;;20.62;38.99
62164;BME280;48149;51.132;7.178;2023-01-30T03:51:42;98673.75;;;20.38;40.39
62164;BME280;48149;51.132;7.178;2023-01-30T03:54:08;98655.00;;;19.14;40.41
62164;BME280;48149;51.132;7.178;2023-01-30T03:56:33;98669.50;;;19.67;40.78
62164;BME280;48149;51.132;7.178;2023-01-30T03:58:58;98656.88;;;20.91;40.45
62164;BME280;48149;51.132;7.178;2023-01-30T04:01:23;98647.00;;;19.45;40.19
62164;BME280;48149;51.132;7.178;2023-01-30T04:03:48;98649.09;;;20.66;40.85
62164;BME280;48149;51.132;7.178;2023-01-30T04:06:14;98639.63;;;20.50;40.34
62164;BME280;48149;51.132;7.178;2023-01-30T04:08:39;98638.88;;;21.41;40.41
62164;BME280;48149;51.132;7.178;2023-01-30T04:11:04;98631.59;;;21.22;39.74
62164;BME280;48149;51.132;7.178;2023-01-30T04:13:29;98611.50;;;18.70;44.34
62164;BME280;48149;51.132;7.178;2023-01-30T04:18:39;98607.53;;;20.36;39.44
62164;BME280;48149;51.132;7.178;2023-01-30T04:21:04;98610.25;;;19.77;40.55
62164;BME280;48149;51.132;7.178;2023-01-30T04:23:29;98621.25;;;21.68;39.74
62164;BME280;48149;51.132;7.178;2023-01-30T04:25:54;98611.41;;;20.10;41.44
62164;BME280;48149;51.132;7.178;2023-01-30T04:28:20;98612.59;;;20.77;39.93
62164;BME280;48149;51.132;7.178;2023-01-30T04:30:45;98611.69;;;19.49;42.85
62164;BME280;48149;51.132;7.178;2023-01-30T04:33:10;98615.47;;;18.73;41.39
62164;BME280;48149;51.132;7.178;2023-01-30T04:35:35;98621.28;;;20.04;41.63
62164;BME280;48149;51.132;7.178;2023-01-30T04:38:00;98623.94;;;22.11;38.88
62164;BME280;48149;51.132;7.178;2023-01-30T04:40:26;98610.03;;;20.17;42.23
62164;BME280;48149;51.132;7.178;2023-01-30T04:42:51;98618.78;;;20.23;41.92
62164;BME280;48149;51.132;7.178;2023-01-30T04:45:16;98613.28;;;20.87;42.07
62164;BME280;48149;51.132;7.178;2023-01-30T04:47:41;98614.63;;;20.51;41.65
62164;BME280;48149;51.132;7.178;2023-01-30T04:50:07;98622.63;;;20.51;40.74
62164;BME280;48149;51.132;7.178;2023-01-30T04:52:32;98619.28;;;20.35;40.61
62164;BME280;48149;51.132;7.178;2023-01-30T04:54:57;98616.44;;;21.47;39.39
62164;BME280;48149;51.132;7.178;2023-01-30T04:57:23;98613.47;;;20.18;40.69
62164;BME280;48149;51.132;7.178;2023-01-30T04:59:48;98625.09;;;20.37;41.80
62164;BME280;48149;51.132;7.178;2023-01-30T05:02:13;98607.06;;;20.97;40.73
62164;BME280;48149;51.132;7.178;2023-01-30T05:04:38;98617.22;;;21.47;39.28
62164;BME280;48149;51.132;7.178;2023-01-30T05:07:03;98627.75;;;20.37;40.86
62164;BME280;48149;51.132;7.178;2023-01-30T05:09:29;98602.41;;;20.06;40.89
62164;BME280;48149;51.132;7.178;2023-01-30T05:11:54;98597.31;;;20.53;41.58
62164;BME280;48149;51.132;7.178;2023-01-30T05:14:19;98597.41;;;20.43;42.26
62164;BME280;48149;51.132;7.178;2023-01-30T05:16:44;98600.78;;;21.40;38.82
62164;BME280;48149;51.132;7.178;2023-01-30T05:19:10;98582.97;;;20.10;40.47
62164;BME280;48149;51.132;7.178;2023-01-30T05:21:36;98588.63;;;22.19;39.98
62164;BME280;48149;51.132;7.178;2023-01-30T05:24:01;98582.28;;;22.15;39.42
62164;BME280;48149;51.132;7.178;2023-01-30T05:26:27;98585.25;;;20.32;42.82
62164;BME280;48149;51.132;7.178;2023-01-30T05:28:55;98593.41;;;20.74;41.11
62164;BME280;48149;51.132;7.178;2023-01-30T05:31:21;98583.63;;;20.70;39.74
62164;BME280;48149;51.132;7.178;2023-01-30T05:33:47;98576.94;;;21.54;39.64
62164;BME280;48149;51.132;7.178;2023-01-30T05:36:14;98591.13;;;21.92;42.38
62164;BME280;48149;51.132;7.178;2023-01-30T05:38:40;98571.28;;;23.32;38.14
62164;BME280;48149;51.132;7.178;2023-01-30T05:41:06;98558.97;;;23.17;36.09
62164;BME280;48149;51.132;7.178;2023-01-30T05:43:32;98565.19;;;22.99;37.58
62164;BME280;48149;51.132;7.178;2023-01-30T05:45:58;98577.72;;;22.53;35.46
62164;BME280;48149;51.132;7.178;2023-01-30T05:48:24;98567.06;;;22.34;38.82
62164;BME280;48149;51.132;7.178;2023-01-30T05:50:50;98563.44;;;23.22;38.02
62164;BME280;48149;51.132;7.178;2023-01-30T05:53:16;98567.34;;;21.53;37.86
62164;BME280;48149;51.132;7.178;2023-01-30T05:55:41;98566.66;;;22.92;37.86
62164;BME280;48149;51.132;7.178;2023-01-30T05:58:07;98569.72;;;23.45;36.81
62164;BME280;48149;51.132;7.178;2023-01-30T06:00:33;98570.59;;;21.50;39.30
62164;BME280;48149;51.132;7.178;2023-01-30T06:02:58;98560.94;;;22.98;37.24
62164;BME280;48149;51.132;7.178;2023-01-30T06:05:23;98559.25;;;21.81;40.22
62164;BME280;48149;51.132;7.178;2023-01-30T06:07:48;98556.03;;;22.22;38.85
62164;BME280;48149;51.132;7.178;2023-01-30T06:10:13;98553.88;;;24.33;37.04
62164;BME280;48149;51.132;7.178;2023-01-30T06:12:39;98567.59;;;23.14;37.86
62164;BME280;48149;51.132;7.178;2023-01-30T06:15:04;98559.16;;;31.84;37.62
62164;BME280;48149;51.132;7.178;2023-01-30T06:17:29;98558.63;;;22.46;37.01
62164;BME280;48149;51.132;7.178;2023-01-30T06:19:55;98568.81;;;22.76;38.10
62164;BME280;48149;51.132;7.178;2023-01-30T06:22:20;98565.84;;;22.26;41.40
62164;BME280;48149;51.132;7.178;2023-01-30T06:24:45;98569.63;;;21.64;41.22
62164;BME280;48149;51.132;7.178;2023-01-30T06:27:10;98590.00;;;21.98;40.03
62164;BME280;48149;51.132;7.178;2023-01-30T06:29:35;98571.63;;;21.72;41.88
62164;BME280;48149;51.132;7.178;2023-01-30T06:32:01;98582.38;;;22.61;39.51
62164;BME280;48149;51.132;7.178;2023-01-30T06:34:26;98593.13;;;24.82;36.79
62164;BME280;48149;51.132;7.178;2023-01-30T06:36:51;98589.00;;;21.70;40.08
62164;BME280;48149;51.132;7.178;2023-01-30T06:39:16;98571.25;;;24.22;36.30
62164;BME280;48149;51.132;7.178;2023-01-30T06:41:42;98583.13;;;23.26;39.08
62164;BME280;48149;51.132;7.178;2023-01-30T06:44:08;98573.28;;;24.03;37.44
62164;BME280;48149;51.132;7.178;2023-01-30T06:46:33;98560.94;;;23.80;38.08
62164;BME280;48149;51.132;7.178;2023-01-30T06:48:58;98553.19;;;22.51;36.49
62164;BME280;48149;51.132;7.178;2023-01-30T06:51:23;98574.34;;;24.16;37.71
62164;BME280;48149;51.132;7.178;2023-01-30T06:53:51;98583.28;;;24.11;37.82
62164;BME280;48149;51.132;7.178;2023-01-30T06:56:16;98609.97;;;22.38;39.84
62164;BME280;48149;51.132;7.178;2023-01-30T06:58:41;98612.50;;;21.87;38.69
62164;BME280;48149;51.132;7.178;2023-01-30T07:01:06;98594.25;;;22.36;38.42
62164;BME280;48149;51.132;7.178;2023-01-30T07:03:32;98607.72;;;22.26;43.07
62164;BME280;48149;51.132;7.178;2023-01-30T07:05:57;98610.97;;;23.52;38.61
62164;BME280;48149;51.132;7.178;2023-01-30T07:08:22;98613.75;;;23.01;39.56
62164;BME280;48149;51.132;7.178;2023-01-30T07:10:47;98617.97;;;23.34;38.13
62164;BME280;48149;51.132;7.178;2023-01-30T07:13:13;98603.09;;;22.50;38.46
62164;BME280;48149;51.132;7.178;2023-01-30T07:15:38;98606.13;;;21.64;40.88
62164;BME280;48149;51.132;7.178;2023-01-30T07:18:03;98615.00;;;23.77;37.96
62164;BME280;48149;51.132;7.178;2023-01-30T07:20:28;98604.97;;;24.68;37.80
62164;BME280;48149;51.132;7.178;2023-01-30T07:22:56;98602.00;;;24.91;35.26
62164;BME280;48149;51.132;7.178;2023-01-30T07:25:24;98597.53;;;26.22;34.56
62164;BME280;48149;51.132;7.178;2023-01-30T07:27:54;98601.63;;;23.77;37.43
62164;BME280;48149;51.132;7.178;2023-01-30T07:30:19;98600.31;;;25.35;34.97
62164;BME280;48149;51.132;7.178;2023-01-30T07:32:51;98599.25;;;25.44;33.92
62164;BME280;48149;51.132;7.178;2023-01-30T07:35:18;98613.41;;;23.21;38.17
62164;BME280;48149;51.132;7.178;2023-01-30T07:37:44;98597.00;;;23.82;37.23
62164;BME280;48149;51.132;7.178;2023-01-30T07:40:10;98591.31;;;23.29;38.77
62164;BME280;48149;51.132;7.178;2023-01-30T07:42:36;98584.84;;;23.49;37.32
62164;BME280;48149;51.132;7.178;2023-01-30T07:45:01;98593.22;;;23.29;38.23
62164;BME280;48149;51.132;7.178;2023-01-30T07:47:26;98598.03;;;25.51;34.83
62164;BME280;48149;51.132;7.178;2023-01-30T07:49:51;98620.06;;;23.65;37.10
62164;BME280;48149;51.132;7.178;2023-01-30T07:52:17;98611.00;;;24.15;36.63
62164;BME280;48149;51.132;7.178;2023-01-30T07:54:42;98622.75;;;24.64;35.21
62164;BME280;48149;51.132;7.178;2023-01-30T07:57:07;98610.19;;;24.28;37.33
62164;BME280;48149;51.132;7.178;2023-01-30T07:59:32;98624.81;;;22.95;40.50
62164;BME280;48149;51.132;7.178;2023-01-30T08:01:57;98624.63;;;23.05;38.74
62164;BME280;48149;51.132;7.178;2023-01-30T08:04:23;98621.41;;;23.21;38.85
62164;BME280;48149;51.132;7.178;2023-01-30T08:06:48;98625.00;;;24.48;38.11
62164;BME280;48149;51.132;7.178;2023-01-30T08:09:13;98632.53;;;24.68;36.51
62164;BME280;48149;51.132;7.178;2023-01-30T08:11:38;98639.56;;;23.65;37.37
62164;BME280;48149;51.132;7.178;2023-01-30T08:14:04;98622.41;;;22.05;39.14
62164;BME280;48149;51.132;7.178;2023-01-30T08:16:29;98634.97;;;25.01;37.28
62164;BME280;48149;51.132;7.178;2023-01-30T08:18:56;98654.16;;;23.27;36.53
62164;BME280;48149;51.132;7.178;2023-01-30T08:21:21;98634.72;;;23.54;37.78
62164;BME280;48149;51.132;7.178;2023-01-30T08:23:46;98631.81;;;24.76;38.66
62164;BME280;48149;51.132;7.178;2023-01-30T08:26:11;98636.31;;;22.58;38.98
62164;BME280;48149;51.132;7.178;2023-01-30T08:28:37;98635.41;;;22.30;39.50
62164;BME280;48149;51.132;7.178;2023-01-30T08:31:07;98643.13;;;23.61;38.89
62164;BME280;48149;51.132;7.178;2023-01-30T08:33:32;98662.63;;;24.16;37.36
62164;BME280;48149;51.132;7.178;2023-01-30T08:35:57;98657.00;;;23.63;37.12
62164;BME280;48149;51.132;7.178;2023-01-30T08:38:23;98664.19;;;24.03;36.77
62164;BME280;48149;51.132;7.178;2023-01-30T08:40:48;98647.88;;;23.91;37.37
62164;BME280;48149;51.132;7.178;2023-01-30T08:43:13;98651.84;;;23.53;37.28
62164;BME280;48149;51.132;7.178;2023-01-30T08:45:38;98654.31;;;23.49;37.30
62164;BME280;48149;51.132;7.178;2023-01-30T08:48:04;98655.00;;;24.23;38.24
62164;BME280;48149;51.132;7.178;2023-01-30T08:50:30;98652.41;;;24.18;38.63
62164;BME280;48149;51.132;7.178;2023-01-30T08:52:55;98664.16;;;22.89;39.46
62164;BME280;48149;51.132;7.178;2023-01-30T08:55:21;98652.31;;;23.55;38.44
62164;BME280;48149;51.132;7.178;2023-01-30T08:57:46;98645.00;;;23.74;39.49
62164;BME280;48149;51.132;7.178;2023-01-30T09:00:12;98660.94;;;24.20;37.70
62164;BME280;48149;51.132;7.178;2023-01-30T09:02:37;98663.13;;;23.77;37.69
62164;BME280;48149;51.132;7.178;2023-01-30T09:05:03;98683.13;;;23.52;36.17
62164;BME280;48149;51.132;7.178;2023-01-30T09:07:29;98686.66;;;25.93;35.18
62164;BME280;48149;51.132;7.178;2023-01-30T09:09:54;98678.75;;;24.24;35.81
62164;BME280;48149;51.132;7.178;2023-01-30T09:12:20;98664.31;;;25.06;35.35
62164;BME280;48149;51.132;7.178;2023-01-30T09:14:45;98664.09;;;22.94;37.73
62164;BME280;48149;51.132;7.178;2023-01-30T09:17:10;98644.31;;;23.55;38.11
62164;BME280;48149;51.132;7.178;2023-01-30T09:19:36;98640.97;;;26.16;34.60
62164;BME280;48149;51.132;7.178;2023-01-30T09:22:01;98623.88;;;22.53;37.38
62164;BME280;48149;51.132;7.178;2023-01-30T09:24:26;98630.47;;;23.53;36.96
62164;BME280;48149;51.132;7.178;2023-01-30T09:26:55;98642.09;;;23.29;36.55
62164;BME280;48149;51.132;7.178;2023-01-30T09:29:24;98641.59;;;24.09;36.82
62164;BME280;48149;51.132;7.178;2023-01-30T09:31:49;98632.88;;;24.31;33.22
62164;BME280;48149;51.132;7.178;2023-01-30T09:34:15;98643.72;;;23.58;36.10
62164;BME280;48149;51.132;7.178;2023-01-30T09:36:40;98650.16;;;22.41;37.45
62164;BME280;48149;51.132;7.178;2023-01-30T09:39:06;98661.56;;;22.84;38.91
62164;BME280;48149;51.132;7.178;2023-01-30T09:41:39;98678.19;;;24.14;37.20
62164;BME280;48149;51.132;7.178;2023-01-30T09:44:28;98653.06;;;21.84;36.68
62164;BME280;48149;51.132;7.178;2023-01-30T09:47:08;98677.72;;;22.55;37.45
62164;BME280;48149;51.132;7.178;2023-01-30T09:49:38;98690.00;;;22.56;37.55
62164;BME280;48149;51.132;7.178;2023-01-30T09:54:41;98676.16;;;21.12;38.31
62164;BME280;48149;51.132;7.178;2023-01-30T09:57:21;98673.59;;;23.00;34.60
62164;BME280;48149;51.132;7.178;2023-01-30T10:00:08;98674.72;;;23.59;34.88
62164;BME280;48149;51.132;7.178;2023-01-30T10:03:12;98688.09;;;21.72;37.36
62164;BME280;48149;51.132;7.178;2023-01-30T10:08:02;98681.88;;;22.05;37.12
62164;BME280;48149;51.132;7.178;2023-01-30T10:10:39;98704.38;;;23.11;34.57
62164;BME280;48149;51.132;7.178;2023-01-30T10:15:55;98683.94;;;24.79;34.12
62164;BME280;48149;51.132;7.178;2023-01-30T10:18:29;98684.81;;;24.52;34.85
62164;BME280;48149;51.132;7.178;2023-01-30T10:26:13;98689.31;;;24.79;33.17
62164;BME280;48149;51.132;7.178;2023-01-30T10:31:14;98699.34;;;24.37;32.65
62164;BME280;48149;51.132;7.178;2023-01-30T10:36:18;98711.06;;;22.76;32.03
62164;BME280;48149;51.132;7.178;2023-01-30T10:38:49;98724.31;;;21.73;35.21
62164;BME280;48149;51.132;7.178;2023-01-30T10:43:44;98689.59;;;22.25;34.49
62164;BME280;48149;51.132;7.178;2023-01-30T10:46:21;98704.00;;;23.64;34.61
62164;BME280;48149;51.132;7.178;2023-01-30T10:53:59;98704.75;;;23.05;31.67
62164;BME280;48149;51.132;7.178;2023-01-30T10:58:53;98713.34;;;23.94;31.74
62164;BME280;48149;51.132;7.178;2023-01-30T11:03:59;98708.25;;;24.47;31.81
62164;BME280;48149;51.132;7.178;2023-01-30T11:06:26;98711.94;;;22.72;33.27
62164;BME280;48149;51.132;7.178;2023-01-30T11:08:52;98716.31;;;24.82;31.94
62164;BME280;48149;51.132;7.178;2023-01-30T11:14:05;98710.84;;;24.74;30.20
62164;BME280;48149;51.132;7.178;2023-01-30T11:16:31;98703.41;;;25.07;30.69
62164;BME280;48149;51.132;7.178;2023-01-30T11:18:58;98698.56;;;23.55;30.90
62164;BME280;48149;51.132;7.178;2023-01-30T11:21:28;98703.81;;;24.28;31.70
62164;BME280;48149;51.132;7.178;2023-01-30T11:23:55;98712.84;;;24.68;31.16
62164;BME280;48149;51.132;7.178;2023-01-30T11:26:22;98709.69;;;25.02;30.62
62164;BME280;48149;51.132;7.178;2023-01-30T11:28:47;98710.44;;;22.23;31.81
62164;BME280;48149;51.132;7.178;2023-01-30T11:31:17;98710.56;;;25.20;30.05
62164;BME280;48149;51.132;7.178;2023-01-30T11:33:43;98707.94;;;24.84;30.14
62164;BME280;48149;51.132;7.178;2023-01-30T11:36:25;98711.44;;;25.07;29.38
62164;BME280;48149;51.132;7.178;2023-01-30T11:38:54;98711.56;;;25.24;30.51
62164;BME280;48149;51.132;7.178;2023-01-30T11:41:21;98707.38;;;23.23;31.68
62164;BME280;48149;51.132;7.178;2023-01-30T11:43:46;98703.56;;;25.10;30.01
62164;BME280;48149;51.132;7.178;2023-01-30T11:46:17;98723.91;;;26.43;28.91
62164;BME280;48149;51.132;7.178;2023-01-30T11:48:50;98715.84;;;21.08;32.02
62164;BME280;48149;51.132;7.178;2023-01-30T11:51:18;98719.34;;;23.45;31.03
62164;BME280;48149;51.132;7.178;2023-01-30T11:53:45;98725.50;;;23.86;30.02
62164;BME280;48149;51.132;7.178;2023-01-30T11:56:16;98707.09;;;24.25;30.18
62164;BME280;48149;51.132;7.178;2023-01-30T11:58:44;98714.94;;;23.03;30.32
62164;BME280;48149;51.132;7.178;2023-01-30T12:01:13;98699.84;;;23.58;31.32
62164;BME280;48149;51.132;7.178;2023-01-30T12:03:47;98713.22;;;25.64;28.98
62164;BME280;48149;51.132;7.178;2023-01-30T12:06:20;98698.19;;;24.16;30.04
62164;BME280;48149;51.132;7.178;2023-01-30T12:08:45;98698.66;;;25.34;29.38
62164;BME280;48149;51.132;7.178;2023-01-30T12:13:49;98703.75;;;25.67;28.71
62164;BME280;48149;51.132;7.178;2023-01-30T12:16:20;98686.59;;;24.07;29.46
62164;BME280;48149;51.132;7.178;2023-01-30T12:18:54;98725.59;;;22.28;32.07
62164;BME280;48149;51.132;7.178;2023-01-30T12:27:03;98706.13;;;25.15;30.27
62164;BME280;48149;51.132;7.178;2023-01-30T12:32:11;98726.19;;;24.46;29.98
62164;BME280;48149;51.132;7.178;2023-01-30T12:34:37;98722.09;;;24.98;30.79
62164;BME280;48149;51.132;7.178;2023-01-30T12:37:05;98715.38;;;21.35;32.81
62164;BME280;48149;51.132;7.178;2023-01-30T12:39:46;98718.25;;;22.76;31.44
62164;BME280;48149;51.132;7.178;2023-01-30T12:42:39;98723.75;;;24.72;29.63
62164;BME280;48149;51.132;7.178;2023-01-30T12:45:19;98711.69;;;23.38;31.64
62164;BME280;48149;51.132;7.178;2023-01-30T13:00:42;98721.50;;;25.85;28.56
62164;BME280;48149;51.132;7.178;2023-01-30T13:05:50;98733.41;;;25.39;28.85
62164;BME280;48149;51.132;7.178;2023-01-30T13:08:28;98732.06;;;25.51;28.96
62164;BME280;48149;51.132;7.178;2023-01-30T13:16:10;98731.59;;;25.88;27.73
62164;BME280;48149;51.132;7.178;2023-01-30T13:18:50;98745.44;;;26.86;26.65
62164;BME280;48149;51.132;7.178;2023-01-30T13:21:19;98741.69;;;25.29;26.62
62164;BME280;48149;51.132;7.178;2023-01-30T13:26:47;98752.88;;;24.24;28.80
62164;BME280;48149;51.132;7.178;2023-01-30T13:29:15;98767.19;;;22.48;30.26
62164;BME280;48149;51.132;7.178;2023-01-30T13:31:47;98782.56;;;22.37;29.97
62164;BME280;48149;51.132;7.178;2023-01-30T13:34:19;98752.59;;;25.33;27.88
62164;BME280;48149;51.132;7.178;2023-01-30T13:36:50;98756.13;;;21.64;29.37
62164;BME280;48149;51.132;7.178;2023-01-30T13:41:52;98755.88;;;21.61;29.81
62164;BME280;48149;51.132;7.178;2023-01-30T13:46:46;98774.50;;;22.61;29.65
62164;BME280;48149;51.132;7.178;2023-01-30T13:49:18;98771.75;;;25.48;27.97
62164;BME280;48149;51.132;7.178;2023-01-30T13:51:49;98785.88;;;25.18;28.85
62164;BME280;48149;51.132;7.178;2023-01-30T13:54:25;98790.53;;;25.04;29.02
62164;BME280;48149;51.132;7.178;2023-01-30T13:56:56;98798.97;;;24.98;28.58
62164;BME280;48149;51.132;7.178;2023-01-30T14:09:49;98796.09;;;25.30;28.17
62164;BME280;48149;51.132;7.178;2023-01-30T14:12:18;98805.63;;;25.97;27.08
62164;BME280;48149;51.132;7.178;2023-01-30T14:15:01;98807.81;;;25.87;28.22
62164;BME280;48149;51.132;7.178;2023-01-30T14:17:27;98809.78;;;25.28;28.66
62164;BME280;48149;51.132;7.178;2023-01-30T14:22:24;98812.38;;;24.02;28.45
62164;BME280;48149;51.132;7.178;2023-01-30T14:27:43;98816.84;;;25.24;26.37
62164;BME280;48149;51.132;7.178;2023-01-30T14:32:53;98831.75;;;24.54;28.27
62164;BME280;48149;51.132;7.178;2023-01-30T14:35:20;98846.13;;;23.84;28.30
62164;BME280;48149;51.132;7.178;2023-01-30T14:37:47;98830.97;;;24.26;28.70
62164;BME280;48149;51.132;7.178;2023-01-30T14:54:21;98854.13;;;24.99;27.58
62164;BME280;48149;51.132;7.178;2023-01-30T14:56:32;98859.50;;;24.99;27.45
62164;BME280;48149;51.132;7.178;2023-01-30T14:59:02;98864.97;;;23.42;29.79
62164;BME280;48149;51.132;7.178;2023-01-30T15:01:51;98856.75;;;23.57;29.74
62164;BME280;48149;51.132;7.178;2023-01-30T15:04:13;98860.47;;;24.62;29.09
62164;BME280;48149;51.132;7.178;2023-01-30T15:06:39;98872.53;;;24.05;28.96
62164;BME280;48149;51.132;7.178;2023-01-30T15:09:05;98879.88;;;26.11;27.67
62164;BME280;48149;51.132;7.178;2023-01-30T15:11:31;98858.13;;;22.51;28.59
62164;BME280;48149;51.132;7.178;2023-01-30T15:16:26;98890.31;;;25.10;28.00
62164;BME280;48149;51.132;7.178;2023-01-30T15:24:15;98895.41;;;21.70;30.59
62164;BME280;48149;51.132;7.178;2023-01-30T15:32:00;98918.31;;;26.20;26.44
62164;BME280;48149;51.132;7.178;2023-01-30T15:34:27;98921.78;;;25.54;27.28